Aledo, IL

1:00 PM CDT on August 30, 2016 (GMT -0500)
KILALEDO2 | | Change Station

Elev 735 ft 41.20 °N, 90.76 °W | Updated 10 seconds ago

Mostly Cloudy
Mostly Cloudy
80.8 °F
Feels Like 85 °F
N
1.3
Wind Variable Wind from West
Gusts 2.7 mph

Today
High -- | Low -- °F
--% Chance of Precip.
Yesterday
High -- | Low -- °F
Precip. -- in
Pressure 30.12 in
Visibility 10.0 miles
Clouds Mostly Cloudy 2200 ft
Heat Index 85 °F
Dew Point 72 °F
Humidity 76%
Rainfall 0.02 in
Snow Depth Not available.
6:28 AM 7:38 PM
Waning Crescent, 3% visible
METAR KMLI 301752Z 24007KT 10SM BKN022 27/22 A3013 RMK AO2 SLP198 60001 T02720217 10272 20211 58003
Pressure 30.12 in
Visibility 10.0 miles
Clouds Mostly Cloudy 2200 ft
Heat Index 85 °F
Dew Point 72 °F
Humidity 76%
Rainfall 0.02 in
Snow Depth Not available.
6:28 AM 7:38 PM
Waning Crescent, 3% visible
METAR KMLI 301752Z 24007KT 10SM BKN022 27/22 A3013 RMK AO2 SLP198 60001 T02720217 10272 20211 58003

10-Day Weather Forecast

Almanac

Astronomy

Aug. 30, 2016 Rise Set
Actual Time
Civil Twilight
Nautical Twilight
Astronomical Twilight
Moon
Length of Visible Light
Length of Day
Tomorrow will be .
, % of the Moon is Illuminated

Today's Extremes

State Highs State Lows

Community

WunderPhotos

Upload Photos

1,935,853 photos uploaded!

WunderBlog® & News

Nearby

Air Quality

  Air Quality AQ Index Pollutant
Not available.

Snow Depth

Station Depth Elevation

Earthquake Activity

City Distance Mag. Time & Date
Minimum magnitude displayed is 2.5.

Coastal Water Temperatures

Place Temperature

Stations

Nearby Weather Stations

Station Location Temp. Windchill Dew Point Humidity Wind Precip. Elev Updated Type
                   

Watches & Warnings

Flood Warning
Issued: 10:01 AM CDT Aug. 30, 2016 – National Weather Service

... Flood Warning now in effect until Saturday morning...

The Flood Warning continues for
the Mississippi River at Keithsburg.
* Until Saturday morning.
* At 9:30 am Tuesday the stage was 13.8 feet... and steady.
* Flood stage is 14 feet.
* No flooding is occurring and minor flooding is forecast.
* Forecast... rise above flood stage this evening... and continue
rising to 14.4 feet Thursday morning. Fall below flood stage
Saturday morning.
* Impact... at 14.5 feet... water affects low lying areas in Oquawka.


Lat... Lon 4116 9097 4117 9106 4094 9099 4091 9094
      4108 9091




1001 am CDT Tue Aug 30 2016

... Flood Warning remains in effect until Friday evening...

The Flood Warning continues for
the Mississippi River at New Boston ld17.
* Until Friday evening.
* At 8:00 am Tuesday the stage was 14.6 feet... and steady.
* Flood stage is 15 feet.
* No flooding is occurring and minor flooding is forecast.
* Forecast... rise above flood stage Wednesday morning... and continue
rising to 15.3 feet Thursday. Fall below flood stage Friday
evening.



Lat... Lon 4124 9108 4124 9114 4119 9111 4117 9106
      4116 9097